createdAt,value
2017-04-17T00:00:43.657Z,10.31
2017-04-17T00:01:44.268Z,10.33
2017-04-17T00:02:44.883Z,10.35
2017-04-17T00:03:45.475Z,10.38
2017-04-17T00:04:46.069Z,10.35
2017-04-17T00:05:46.669Z,10.34
2017-04-17T00:06:47.277Z,10.35
2017-04-17T00:07:47.878Z,10.22
2017-04-17T00:08:48.490Z,10.31
2017-04-17T00:09:49.089Z,10.33
2017-04-17T00:10:49.707Z,10.26
2017-04-17T00:11:50.304Z,10.30
2017-04-17T00:12:50.898Z,10.26
2017-04-17T00:13:51.492Z,10.23
2017-04-17T00:14:52.088Z,10.23
2017-04-17T00:15:52.684Z,10.31
2017-04-17T00:16:53.295Z,10.28
2017-04-17T00:17:53.891Z,10.41
2017-04-17T00:18:54.487Z,10.28
2017-04-17T00:19:55.082Z,10.28
2017-04-17T00:20:55.717Z,10.34
2017-04-17T00:21:56.318Z,10.34
2017-04-17T00:22:56.911Z,10.28
2017-04-17T00:23:57.505Z,10.35
2017-04-17T00:24:58.106Z,10.40
2017-04-17T00:25:58.702Z,10.41
2017-04-17T00:26:59.294Z,10.42
2017-04-17T00:27:59.890Z,10.40
2017-04-17T00:29:00.485Z,10.41
2017-04-17T00:30:01.086Z,10.44
2017-04-17T00:31:01.689Z,10.44
2017-04-17T00:32:02.279Z,10.41
2017-04-17T00:33:02.873Z,10.44
2017-04-17T00:34:03.470Z,10.42
2017-04-17T00:35:04.088Z,10.40
2017-04-17T00:36:04.679Z,10.34
2017-04-17T00:37:05.276Z,10.37
2017-04-17T00:38:05.872Z,10.38
2017-04-17T00:39:06.482Z,10.33
2017-04-17T00:40:07.093Z,10.40
2017-04-17T00:41:07.691Z,10.46
2017-04-17T00:42:08.289Z,10.44
2017-04-17T00:43:08.881Z,10.42
2017-04-17T00:44:09.476Z,10.49
2017-04-17T00:45:10.072Z,10.46
2017-04-17T00:46:10.675Z,10.42
2017-04-17T00:47:11.291Z,10.54
2017-04-17T00:48:11.891Z,10.46
2017-04-17T00:49:12.502Z,10.48
2017-04-17T00:50:13.097Z,10.40
2017-04-17T00:51:13.698Z,10.57
2017-04-17T00:52:14.309Z,10.40
2017-04-17T00:53:14.906Z,10.51
2017-04-17T00:54:15.509Z,10.42
2017-04-17T00:55:16.101Z,10.41
2017-04-17T00:56:16.712Z,10.57
2017-04-17T00:57:17.307Z,10.59
2017-04-17T00:58:17.904Z,10.56
2017-04-17T00:59:18.501Z,10.53
2017-04-17T01:00:19.096Z,10.53
2017-04-17T01:01:19.692Z,10.48
2017-04-17T01:02:20.288Z,10.54
2017-04-17T01:03:20.899Z,10.44
2017-04-17T01:04:21.499Z,10.49
2017-04-17T01:05:22.093Z,10.42
2017-04-17T01:06:22.687Z,10.40
2017-04-17T01:07:23.286Z,10.42
2017-04-17T01:08:23.883Z,10.40
2017-04-17T01:09:24.491Z,10.41
2017-04-17T01:10:25.103Z,10.37
2017-04-17T01:11:25.699Z,10.42
2017-04-17T01:12:26.299Z,10.33
2017-04-17T01:13:26.890Z,10.38
2017-04-17T01:14:27.490Z,10.35
2017-04-17T01:15:28.089Z,10.37
2017-04-17T01:16:28.682Z,10.31
2017-04-17T01:17:29.284Z,10.38
2017-04-17T01:18:29.874Z,10.44
2017-04-17T01:19:30.469Z,10.41
2017-04-17T01:20:31.065Z,10.42
2017-04-17T01:21:31.660Z,10.34
2017-04-17T01:22:32.256Z,10.41
2017-04-17T01:23:32.859Z,10.42
2017-04-17T01:24:33.454Z,10.38
2017-04-17T01:25:34.051Z,10.42
2017-04-17T01:26:34.668Z,10.42
2017-04-17T01:27:35.268Z,10.42
2017-04-17T01:28:35.859Z,10.40
2017-04-17T01:29:36.461Z,10.42
2017-04-17T01:30:37.053Z,10.35
2017-04-17T01:31:37.651Z,10.34
2017-04-17T01:32:38.254Z,10.34
2017-04-17T01:33:38.846Z,10.33
2017-04-17T01:34:39.446Z,10.37
2017-04-17T01:35:40.058Z,10.40
2017-04-17T01:36:40.660Z,10.40
2017-04-17T01:37:41.253Z,10.37
2017-04-17T01:38:41.849Z,10.34
2017-04-17T01:39:42.444Z,10.35
2017-04-17T01:40:43.040Z,10.33
2017-04-17T01:41:43.637Z,10.33
2017-04-17T01:42:44.231Z,10.38
2017-04-17T01:43:44.826Z,10.37
2017-04-17T01:44:45.430Z,10.30
2017-04-17T01:45:46.024Z,10.30
2017-04-17T01:46:46.639Z,10.30
2017-04-17T01:47:47.220Z,10.22
2017-04-17T01:48:47.814Z,10.22
2017-04-17T01:49:48.415Z,10.28
2017-04-17T01:50:49.011Z,10.26
2017-04-17T01:51:49.602Z,10.26
2017-04-17T01:52:50.199Z,10.25
2017-04-17T01:53:50.794Z,10.33
2017-04-17T01:54:51.389Z,10.28
2017-04-17T01:55:51.986Z,10.23
2017-04-17T01:56:52.597Z,10.30
2017-04-17T01:57:53.192Z,10.25
2017-04-17T01:58:53.803Z,10.20
2017-04-17T01:59:54.398Z,10.19
2017-04-17T02:00:54.993Z,10.22
2017-04-17T02:01:55.604Z,10.28
2017-04-17T02:02:56.205Z,10.28
2017-04-17T02:03:56.798Z,10.30
2017-04-17T02:04:57.400Z,10.25
2017-04-17T02:05:58.001Z,10.19
2017-04-17T02:06:58.594Z,10.19
2017-04-17T02:07:59.188Z,10.19
2017-04-17T02:08:59.790Z,10.20
2017-04-17T02:10:00.382Z,10.19
2017-04-17T02:11:00.982Z,10.26
2017-04-17T02:12:01.599Z,10.22
2017-04-17T02:13:02.196Z,10.17
2017-04-17T02:14:02.789Z,10.20
2017-04-17T02:15:03.384Z,10.17
2017-04-17T02:16:03.993Z,10.17
2017-04-17T02:17:04.588Z,10.20
2017-04-17T02:18:05.393Z,10.19
2017-04-17T02:19:05.989Z,10.22
2017-04-17T02:20:06.584Z,10.22
2017-04-17T02:21:07.180Z,10.20
2017-04-17T02:22:07.797Z,10.15
2017-04-17T02:23:08.390Z,10.10
2017-04-17T02:24:08.987Z,10.15
2017-04-17T02:25:09.581Z,10.10
2017-04-17T02:26:10.178Z,10.12
2017-04-17T02:27:10.772Z,10.04
2017-04-17T02:28:11.373Z,9.98
2017-04-17T02:29:11.987Z,10.04
2017-04-17T02:30:12.578Z,10.09
2017-04-17T02:31:13.175Z,10.09
2017-04-17T02:32:13.786Z,10.15
2017-04-17T02:33:14.380Z,10.12
2017-04-17T02:34:14.982Z,10.13
2017-04-17T02:35:15.575Z,10.13
2017-04-17T02:36:16.169Z,10.19
2017-04-17T02:37:16.767Z,10.17
2017-04-17T02:38:17.367Z,10.16
2017-04-17T02:39:17.960Z,10.23
2017-04-17T02:40:18.555Z,10.23
2017-04-17T02:41:19.154Z,10.31
2017-04-17T02:42:19.746Z,10.22
2017-04-17T02:43:20.341Z,10.23
2017-04-17T02:44:20.952Z,10.25
2017-04-17T02:45:21.549Z,10.23
2017-04-17T02:46:22.143Z,10.30
2017-04-17T02:47:22.740Z,10.25
2017-04-17T02:48:23.351Z,10.33
2017-04-17T02:49:23.962Z,10.23
2017-04-17T02:50:24.557Z,10.25
2017-04-17T02:51:25.154Z,10.28
2017-04-17T02:52:25.768Z,10.31
2017-04-17T02:53:26.376Z,10.30
2017-04-17T02:54:26.988Z,10.26
2017-04-17T02:55:27.583Z,10.30
2017-04-17T02:56:28.201Z,10.31
2017-04-17T02:57:28.957Z,10.28
2017-04-17T02:58:29.553Z,10.28
2017-04-17T02:59:30.148Z,10.33
2017-04-17T03:00:30.743Z,10.26
2017-04-17T03:01:31.339Z,10.28
2017-04-17T03:02:31.934Z,10.23
2017-04-17T03:03:32.530Z,10.25
2017-04-17T03:04:33.125Z,10.30
2017-04-17T03:05:33.721Z,10.33
2017-04-17T03:06:34.318Z,10.34
2017-04-17T03:07:34.912Z,10.30
2017-04-17T03:08:35.514Z,10.25
2017-04-17T03:09:36.109Z,10.19
2017-04-17T03:10:36.720Z,10.26
2017-04-17T03:11:37.320Z,10.23
2017-04-17T03:12:37.915Z,10.26
2017-04-17T03:13:38.512Z,10.28
2017-04-17T03:14:39.108Z,10.28
2017-04-17T03:15:39.703Z,10.33
2017-04-17T03:16:40.304Z,10.26
2017-04-17T03:17:40.899Z,10.20
2017-04-17T03:18:41.509Z,10.25
2017-04-17T03:19:42.105Z,10.22
2017-04-17T03:20:42.706Z,10.17
2017-04-17T03:21:43.322Z,10.20
2017-04-17T03:22:43.916Z,10.17
2017-04-17T03:23:44.510Z,10.19
2017-04-17T03:24:45.165Z,10.23
2017-04-17T03:25:45.762Z,10.16
2017-04-17T03:26:46.357Z,10.15
2017-04-17T03:27:46.953Z,10.16
2017-04-17T03:28:47.555Z,10.12
2017-04-17T03:29:48.153Z,10.07
2017-04-17T03:30:48.746Z,10.04
2017-04-17T03:31:49.413Z,9.95
2017-04-17T03:32:50.071Z,10.02
2017-04-17T03:33:50.663Z,9.95
2017-04-17T03:34:51.259Z,9.97
2017-04-17T03:35:51.875Z,10.05
2017-04-17T03:36:53.199Z,10.07
2017-04-17T03:37:53.796Z,10.04
2017-04-17T03:38:54.405Z,10.07
2017-04-17T03:39:55.005Z,10.07
2017-04-17T03:40:55.615Z,10.01
2017-04-17T03:41:56.210Z,10.04
2017-04-17T03:42:56.827Z,10.07
2017-04-17T03:43:57.420Z,10.07
2017-04-17T03:44:58.015Z,10.07
2017-04-17T03:45:58.625Z,10.04
2017-04-17T03:46:59.229Z,10.10
2017-04-17T03:47:59.849Z,10.01
2017-04-17T03:49:00.444Z,10.01
2017-04-17T03:50:01.045Z,10.10
2017-04-17T03:51:01.640Z,10.07
2017-04-17T03:52:02.234Z,10.13
2017-04-17T03:53:02.830Z,10.07
2017-04-17T03:54:03.424Z,9.98
2017-04-17T03:55:04.018Z,9.97
2017-04-17T03:56:04.620Z,9.98
2017-04-17T03:57:05.212Z,9.94
2017-04-17T03:58:05.806Z,9.94
2017-04-17T03:59:06.402Z,9.95
2017-04-17T04:00:06.996Z,9.98
2017-04-17T04:01:07.597Z,10.04
2017-04-17T04:02:08.208Z,9.97
2017-04-17T04:03:08.806Z,9.99
2017-04-17T04:04:09.398Z,9.95
2017-04-17T04:05:10.053Z,9.97
2017-04-17T04:06:10.663Z,9.92
2017-04-17T04:07:11.257Z,9.98
2017-04-17T04:08:11.858Z,9.95
2017-04-17T04:09:12.467Z,9.82
2017-04-17T04:10:13.077Z,9.95
2017-04-17T04:11:13.670Z,9.91
2017-04-17T04:12:14.273Z,9.89
2017-04-17T04:13:14.863Z,9.95
2017-04-17T04:14:15.468Z,9.86
2017-04-17T04:15:16.078Z,9.79
2017-04-17T04:16:16.668Z,9.79
2017-04-17T04:17:17.264Z,9.79
2017-04-17T04:18:17.862Z,9.79
2017-04-17T04:19:18.451Z,9.76
2017-04-17T04:20:19.052Z,9.66
2017-04-17T04:21:19.649Z,9.79
2017-04-17T04:22:20.248Z,9.74
2017-04-17T04:23:20.840Z,9.74
2017-04-17T04:24:21.436Z,9.76
2017-04-17T04:25:22.029Z,9.80
2017-04-17T04:26:22.631Z,9.73
2017-04-17T04:27:23.241Z,9.73
2017-04-17T04:28:23.839Z,9.69
2017-04-17T04:29:24.440Z,9.76
2017-04-17T04:30:25.031Z,9.69
2017-04-17T04:31:25.624Z,9.77
2017-04-17T04:32:26.221Z,9.72
2017-04-17T04:33:26.822Z,9.73
2017-04-17T04:34:27.414Z,9.74
2017-04-17T04:35:28.015Z,9.76
2017-04-17T04:36:28.607Z,9.79
2017-04-17T04:37:29.201Z,9.79
2017-04-17T04:38:29.796Z,9.72
2017-04-17T04:39:30.394Z,9.72
2017-04-17T04:40:30.988Z,9.82
2017-04-17T04:41:31.584Z,9.77
2017-04-17T04:42:32.182Z,9.76
2017-04-17T04:43:32.798Z,9.76
2017-04-17T04:44:33.400Z,9.73
2017-04-17T04:45:34.012Z,9.73
2017-04-17T04:46:34.622Z,9.73
2017-04-17T04:47:35.220Z,9.73
2017-04-17T04:48:35.854Z,9.74
2017-04-17T04:49:36.451Z,9.74
2017-04-17T04:50:37.061Z,9.76
2017-04-17T04:51:37.714Z,9.72
2017-04-17T04:52:38.312Z,9.73
2017-04-17T04:53:38.915Z,9.65
2017-04-17T04:54:39.508Z,9.73
2017-04-17T04:55:40.112Z,9.74
2017-04-17T04:56:40.724Z,9.76
2017-04-17T04:57:41.341Z,9.77
2017-04-17T04:58:41.936Z,9.79
2017-04-17T04:59:42.530Z,9.69
2017-04-17T05:00:43.129Z,9.79
2017-04-17T05:01:43.730Z,9.79
2017-04-17T05:02:44.327Z,9.86
2017-04-17T05:03:44.924Z,9.79
2017-04-17T05:04:45.528Z,9.84
2017-04-17T05:05:46.124Z,9.82
2017-04-17T05:06:46.777Z,9.86
2017-04-17T05:07:47.393Z,9.84
2017-04-17T05:08:47.992Z,9.89
2017-04-17T05:09:48.589Z,9.84
2017-04-17T05:10:49.187Z,9.80
2017-04-17T05:11:49.800Z,9.87
2017-04-17T05:12:50.397Z,9.94
2017-04-17T05:13:50.997Z,9.95
2017-04-17T05:14:51.593Z,9.95
2017-04-17T05:15:52.196Z,9.89
2017-04-17T05:16:52.789Z,9.91
2017-04-17T05:17:53.388Z,9.95
2017-04-17T05:18:53.985Z,9.91
2017-04-17T05:19:54.603Z,9.92
2017-04-17T05:20:55.202Z,9.92
2017-04-17T05:21:55.797Z,9.89
2017-04-17T05:22:56.396Z,10.01
2017-04-17T05:23:57.012Z,9.97
2017-04-17T05:24:57.699Z,10.01
2017-04-17T05:25:58.304Z,9.89
2017-04-17T05:26:58.900Z,10.04
2017-04-17T05:27:59.497Z,10.02
2017-04-17T05:29:00.094Z,9.95
2017-04-17T05:30:00.693Z,9.92
2017-04-17T05:31:01.290Z,9.84
2017-04-17T05:32:01.887Z,9.92
2017-04-17T05:33:02.490Z,9.79
2017-04-17T05:34:03.103Z,9.79
2017-04-17T05:35:03.706Z,9.76
2017-04-17T05:36:04.303Z,9.76
2017-04-17T05:37:04.899Z,9.76
2017-04-17T05:38:05.496Z,9.82
2017-04-17T05:39:06.094Z,9.76
2017-04-17T05:40:06.764Z,9.74
2017-04-17T05:41:07.384Z,9.79
2017-04-17T05:42:07.981Z,9.82
2017-04-17T05:43:08.580Z,9.83
2017-04-17T05:44:09.177Z,9.72
2017-04-17T05:45:09.794Z,9.73
2017-04-17T05:46:10.390Z,9.86
2017-04-17T05:47:10.994Z,9.87
2017-04-17T05:48:11.606Z,9.91
2017-04-17T05:49:12.205Z,9.86
2017-04-17T05:50:12.801Z,9.94
2017-04-17T05:51:13.401Z,9.95
2017-04-17T05:52:14.004Z,10.04
2017-04-17T05:53:14.599Z,9.99
2017-04-17T05:54:15.203Z,10.02
2017-04-17T05:55:15.796Z,10.02
2017-04-17T05:56:16.395Z,10.09
2017-04-17T05:57:17.067Z,10.10
2017-04-17T05:58:17.665Z,10.20
2017-04-17T05:59:18.270Z,10.15
2017-04-17T06:00:18.868Z,10.20
2017-04-17T06:01:19.467Z,10.22
2017-04-17T06:02:20.065Z,10.28
2017-04-17T06:03:20.662Z,10.34
2017-04-17T06:04:21.267Z,10.28
2017-04-17T06:05:21.864Z,10.34
2017-04-17T06:06:22.461Z,10.35
2017-04-17T06:07:23.059Z,10.37
2017-04-17T06:08:23.662Z,10.41
2017-04-17T06:09:24.265Z,10.40
2017-04-17T06:10:24.879Z,10.41
2017-04-17T06:11:25.478Z,10.44
2017-04-17T06:12:26.085Z,10.49
2017-04-17T06:13:26.685Z,10.38
2017-04-17T06:14:27.300Z,10.51
2017-04-17T06:15:27.898Z,10.51
2017-04-17T06:16:28.497Z,10.59
2017-04-17T06:17:29.141Z,10.64
2017-04-17T06:18:29.745Z,10.56
2017-04-17T06:19:30.342Z,10.60
2017-04-17T06:20:30.942Z,10.63
2017-04-17T06:21:31.540Z,10.64
2017-04-17T06:22:32.152Z,10.64
2017-04-17T06:23:32.760Z,10.74
2017-04-17T06:24:33.356Z,10.75
2017-04-17T06:25:33.962Z,10.71
2017-04-17T06:26:34.561Z,10.72
2017-04-17T06:27:35.159Z,10.72
2017-04-17T06:28:35.785Z,10.79
2017-04-17T06:29:36.387Z,10.82
2017-04-17T06:30:36.992Z,10.87
2017-04-17T06:31:37.588Z,10.90
2017-04-17T06:32:38.228Z,10.92
2017-04-17T06:33:38.877Z,10.92
2017-04-17T06:34:39.482Z,10.96
2017-04-17T06:35:40.078Z,11.07
2017-04-17T06:36:40.678Z,11.08
2017-04-17T06:37:41.284Z,11.07
2017-04-17T06:38:41.881Z,11.08
2017-04-17T06:39:42.498Z,11.15
2017-04-17T06:40:43.098Z,11.07
2017-04-17T06:41:43.701Z,11.00
2017-04-17T06:42:44.301Z,11.05
2017-04-17T06:43:44.900Z,11.11
2017-04-17T06:44:45.502Z,11.17
2017-04-17T06:45:46.102Z,11.19
2017-04-17T06:46:46.704Z,11.27
2017-04-17T06:47:47.321Z,11.29
2017-04-17T06:48:47.922Z,11.32
2017-04-17T06:49:48.566Z,11.36
2017-04-17T06:50:49.169Z,11.41
2017-04-17T06:51:49.795Z,11.32
2017-04-17T06:52:50.393Z,11.48
2017-04-17T06:53:50.997Z,11.36
2017-04-17T06:54:51.594Z,11.48
2017-04-17T06:55:52.201Z,11.44
2017-04-17T06:56:52.805Z,11.51
2017-04-17T06:57:53.403Z,11.54
2017-04-17T06:58:54.009Z,11.54
2017-04-17T06:59:54.607Z,11.52
2017-04-17T07:00:55.214Z,11.55
2017-04-17T07:01:55.812Z,11.59
2017-04-17T07:02:56.427Z,11.52
2017-04-17T07:03:57.032Z,11.65
2017-04-17T07:04:57.644Z,11.68
2017-04-17T07:05:58.267Z,11.68
2017-04-17T07:06:58.938Z,11.68
2017-04-17T07:07:59.559Z,11.78
2017-04-17T07:09:00.158Z,11.73
2017-04-17T07:10:00.758Z,11.70
2017-04-17T07:11:01.362Z,11.78
2017-04-17T07:12:01.975Z,11.73
2017-04-17T07:13:02.575Z,11.73
2017-04-17T07:14:03.175Z,11.73
2017-04-17T07:15:03.803Z,11.69
2017-04-17T07:16:04.401Z,11.60
2017-04-17T07:17:05.002Z,11.60
2017-04-17T07:18:05.604Z,11.60
2017-04-17T07:19:06.204Z,11.66
2017-04-17T07:20:06.804Z,11.63
2017-04-17T07:21:07.420Z,11.59
2017-04-17T07:22:08.019Z,11.59
2017-04-17T07:23:08.620Z,11.68
2017-04-17T07:24:09.241Z,11.60
2017-04-17T07:25:09.835Z,11.66
2017-04-17T07:26:10.437Z,11.60
2017-04-17T07:27:11.041Z,11.59
2017-04-17T07:28:11.638Z,11.57
2017-04-17T07:29:12.239Z,11.52
2017-04-17T07:30:12.839Z,11.59
2017-04-17T07:31:13.448Z,11.59
2017-04-17T07:32:14.049Z,11.66
2017-04-17T07:33:14.649Z,11.63
2017-04-17T07:34:15.251Z,11.68
2017-04-17T07:35:15.875Z,11.69
2017-04-17T07:36:16.474Z,11.73
2017-04-17T07:37:17.083Z,11.81
2017-04-17T07:38:17.680Z,11.80
2017-04-17T07:39:18.287Z,11.90
2017-04-17T07:40:18.896Z,11.94
2017-04-17T07:41:19.513Z,12.09
2017-04-17T07:42:20.121Z,12.09
2017-04-17T07:43:20.724Z,12.28
2017-04-17T07:44:21.340Z,12.37
2017-04-17T07:45:21.943Z,12.45
2017-04-17T07:46:22.547Z,12.46
2017-04-17T07:47:23.150Z,12.57
2017-04-17T07:48:23.751Z,12.60
2017-04-17T07:49:24.360Z,12.73
2017-04-17T07:50:24.959Z,12.72
2017-04-17T07:51:25.564Z,12.85
2017-04-17T07:52:26.181Z,12.95
2017-04-17T07:53:26.785Z,13.00
2017-04-17T07:54:27.390Z,13.11
2017-04-17T07:55:27.995Z,13.05
2017-04-17T07:56:28.595Z,13.11
2017-04-17T07:57:29.204Z,13.23
2017-04-17T07:58:29.804Z,13.28
2017-04-17T07:59:30.410Z,13.38
2017-04-17T08:00:31.014Z,13.54
2017-04-17T08:01:31.621Z,13.59
2017-04-17T08:02:32.223Z,13.70
2017-04-17T08:03:32.828Z,13.72
2017-04-17T08:04:33.429Z,13.78
2017-04-17T08:05:34.034Z,13.83
2017-04-17T08:06:34.646Z,13.96
2017-04-17T08:07:35.252Z,14.07
2017-04-17T08:08:35.853Z,14.23
2017-04-17T08:09:36.456Z,14.20
2017-04-17T08:10:37.061Z,14.32
2017-04-17T08:11:37.664Z,14.41
2017-04-17T08:12:38.270Z,14.44
2017-04-17T08:13:38.899Z,14.55
2017-04-17T08:14:39.548Z,14.65
2017-04-17T08:15:40.153Z,14.66
2017-04-17T08:16:40.765Z,14.77
2017-04-17T08:17:41.366Z,14.82
2017-04-17T08:18:41.986Z,14.92
2017-04-17T08:19:42.589Z,15.03
2017-04-17T08:20:43.244Z,15.04
2017-04-17T08:21:43.849Z,15.09
2017-04-17T08:22:44.454Z,15.09
2017-04-17T08:23:45.059Z,15.14
2017-04-17T08:24:45.666Z,15.19
2017-04-17T08:25:46.271Z,15.27
2017-04-17T08:26:46.880Z,15.36
2017-04-17T08:27:47.483Z,15.46
2017-04-17T08:28:48.087Z,15.58
2017-04-17T08:29:48.695Z,15.91
2017-04-17T08:30:49.309Z,16.09
2017-04-17T08:31:49.916Z,16.29
2017-04-17T08:32:50.522Z,16.57
2017-04-17T08:33:51.134Z,16.90
2017-04-17T08:34:51.739Z,17.24
2017-04-17T08:35:52.348Z,17.95
2017-04-17T08:36:52.972Z,18.70
2017-04-17T08:37:53.580Z,19.34
2017-04-17T08:38:54.191Z,19.91
2017-04-17T08:39:54.805Z,20.51
2017-04-17T08:40:55.424Z,21.21
2017-04-17T08:41:56.031Z,21.70
2017-04-17T08:42:56.642Z,22.29
2017-04-17T08:43:57.263Z,22.83
2017-04-17T08:44:58.144Z,23.40
2017-04-17T08:45:58.758Z,24.02
2017-04-17T08:46:59.374Z,24.28
2017-04-17T08:47:59.989Z,24.38
2017-04-17T08:49:00.606Z,24.36
2017-04-17T08:50:01.221Z,24.21
2017-04-17T08:51:02.046Z,24.03
2017-04-17T08:52:02.680Z,23.98
2017-04-17T08:53:03.293Z,23.83
2017-04-17T08:54:03.909Z,23.95
2017-04-17T08:55:04.525Z,24.01
2017-04-17T08:56:05.157Z,24.03
2017-04-17T08:57:05.788Z,24.39
2017-04-17T08:58:06.410Z,24.65
2017-04-17T08:59:07.025Z,24.76
2017-04-17T09:00:07.642Z,24.81
2017-04-17T09:01:08.257Z,24.86
2017-04-17T09:02:08.874Z,24.74
2017-04-17T09:03:09.511Z,24.63
2017-04-17T09:04:10.125Z,24.45
2017-04-17T09:05:10.742Z,24.30
2017-04-17T09:06:11.360Z,24.21
2017-04-17T09:07:12.225Z,24.21
2017-04-17T09:08:12.842Z,24.17
2017-04-17T09:09:13.457Z,24.13
2017-04-17T09:10:14.081Z,23.99
2017-04-17T09:11:14.694Z,23.73
2017-04-17T09:12:15.308Z,23.44
2017-04-17T09:13:15.945Z,23.28
2017-04-17T09:14:16.810Z,22.91
2017-04-17T09:15:17.428Z,22.81
2017-04-17T09:16:18.039Z,22.75
2017-04-17T09:17:18.674Z,22.66
2017-04-17T09:18:19.285Z,22.57
2017-04-17T09:19:19.903Z,22.51
2017-04-17T09:20:20.518Z,22.44
2017-04-17T09:21:21.134Z,22.29
2017-04-17T09:22:21.751Z,22.13
2017-04-17T09:23:22.368Z,22.07
2017-04-17T09:24:22.977Z,21.82
2017-04-17T09:25:23.606Z,21.54
2017-04-17T09:26:24.234Z,21.35
2017-04-17T09:27:24.847Z,21.24
2017-04-17T09:28:25.461Z,21.02
2017-04-17T09:29:26.073Z,20.88
2017-04-17T09:30:26.684Z,20.62
2017-04-17T09:31:27.311Z,20.48
2017-04-17T09:32:27.921Z,20.22
2017-04-17T09:33:28.531Z,20.16
2017-04-17T09:34:29.160Z,20.03
2017-04-17T09:35:29.771Z,19.94
2017-04-17T09:36:30.387Z,19.94
2017-04-17T09:37:31.011Z,19.79
2017-04-17T09:38:31.622Z,19.77
2017-04-17T09:39:32.231Z,19.63
2017-04-17T09:40:32.842Z,19.67
2017-04-17T09:41:33.452Z,19.70
2017-04-17T09:42:34.066Z,19.44
2017-04-17T09:43:34.692Z,19.33
2017-04-17T09:44:35.300Z,19.30
2017-04-17T09:45:35.914Z,19.18
2017-04-17T09:46:36.525Z,19.02
2017-04-17T09:47:37.132Z,18.81
2017-04-17T09:48:37.741Z,18.80
2017-04-17T09:49:38.351Z,18.63
2017-04-17T09:50:38.966Z,18.47
2017-04-17T09:51:39.590Z,18.38
2017-04-17T09:52:40.199Z,18.13
2017-04-17T09:53:40.809Z,18.19
2017-04-17T09:54:41.438Z,17.90
2017-04-17T09:55:42.045Z,17.72
2017-04-17T09:56:42.651Z,17.63
2017-04-17T09:57:43.257Z,17.45
2017-04-17T09:58:43.863Z,17.36
2017-04-17T09:59:44.468Z,17.23
2017-04-17T10:00:45.075Z,17.02
2017-04-17T10:01:45.680Z,16.99
2017-04-17T10:02:46.291Z,16.86
2017-04-17T10:03:46.894Z,16.79
2017-04-17T10:04:47.505Z,16.69
2017-04-17T10:05:48.105Z,16.58
2017-04-17T10:06:48.715Z,16.42
2017-04-17T10:07:49.316Z,16.38
2017-04-17T10:08:49.921Z,16.35
2017-04-17T10:09:50.541Z,16.24
2017-04-17T10:10:51.163Z,16.08
2017-04-17T10:11:51.765Z,15.95
2017-04-17T10:12:52.369Z,16.00
2017-04-17T10:13:52.978Z,15.79
2017-04-17T10:14:53.680Z,15.76
2017-04-17T10:15:54.285Z,15.70
2017-04-17T10:16:54.886Z,15.59
2017-04-17T10:17:55.489Z,15.49
2017-04-17T10:18:56.113Z,15.46
2017-04-17T10:19:56.716Z,15.43
2017-04-17T10:20:57.321Z,15.40
2017-04-17T10:21:57.925Z,15.22
2017-04-17T10:22:58.550Z,15.21
2017-04-17T10:23:59.150Z,15.15
2017-04-17T10:24:59.754Z,15.14
2017-04-17T10:26:00.374Z,15.14
2017-04-17T10:27:00.996Z,15.11
2017-04-17T10:28:01.603Z,15.10
2017-04-17T10:29:02.205Z,15.11
2017-04-17T10:30:02.813Z,15.09
2017-04-17T10:31:03.413Z,15.07
2017-04-17T10:32:04.017Z,15.14
2017-04-17T10:33:04.620Z,15.10
2017-04-17T10:34:05.224Z,15.11
2017-04-17T10:35:05.831Z,15.10
2017-04-17T10:36:06.439Z,15.10
2017-04-17T10:37:07.046Z,15.11
2017-04-17T10:38:07.654Z,15.14
2017-04-17T10:39:08.255Z,15.17
2017-04-17T10:40:08.860Z,15.15
2017-04-17T10:41:09.538Z,15.19
2017-04-17T10:42:10.157Z,15.18
2017-04-17T10:43:10.760Z,15.24
2017-04-17T10:44:11.365Z,15.25
2017-04-17T10:45:11.968Z,15.37
2017-04-17T10:46:12.580Z,15.35
2017-04-17T10:47:13.183Z,15.37
2017-04-17T10:48:13.787Z,15.31
2017-04-17T10:49:14.397Z,15.43
2017-04-17T10:50:14.999Z,15.43
2017-04-17T10:51:15.607Z,15.51
2017-04-17T10:52:16.210Z,15.58
2017-04-17T10:53:16.823Z,15.58
2017-04-17T10:54:17.448Z,15.68
2017-04-17T10:55:18.056Z,15.75
2017-04-17T10:56:18.659Z,15.68
2017-04-17T10:57:19.264Z,15.67
2017-04-17T10:58:19.868Z,15.79
2017-04-17T10:59:20.473Z,15.86
2017-04-17T11:00:21.083Z,15.86
2017-04-17T11:01:21.686Z,16.01
2017-04-17T11:02:22.292Z,16.04
2017-04-17T11:03:22.898Z,16.13
2017-04-17T11:04:23.506Z,16.24
2017-04-17T11:05:24.131Z,16.20
2017-04-17T11:06:24.733Z,16.13
2017-04-17T11:07:25.338Z,16.01
2017-04-17T11:08:25.944Z,16.08
2017-04-17T11:09:26.549Z,16.08
2017-04-17T11:10:27.156Z,16.09
2017-04-17T11:11:27.762Z,16.08
2017-04-17T11:12:28.371Z,16.08
2017-04-17T11:13:28.974Z,16.04
2017-04-17T11:14:29.586Z,16.01
2017-04-17T11:15:30.188Z,15.95
2017-04-17T11:16:30.795Z,16.01
2017-04-17T11:17:31.400Z,16.05
2017-04-17T11:18:32.227Z,16.00
2017-04-17T11:19:32.837Z,16.04
2017-04-17T11:20:33.457Z,16.23
2017-04-17T11:21:34.064Z,16.31
2017-04-17T11:22:34.675Z,16.29
2017-04-17T11:23:35.283Z,16.28
2017-04-17T11:24:35.911Z,16.32
2017-04-17T11:25:36.509Z,16.29
2017-04-17T11:26:37.114Z,16.23
2017-04-17T11:27:37.719Z,16.16
2017-04-17T11:28:38.330Z,16.16
2017-04-17T11:29:38.933Z,16.09
2017-04-17T11:30:39.535Z,16.02
2017-04-17T11:31:40.147Z,16.04
2017-04-17T11:32:40.771Z,15.91
2017-04-17T11:33:41.373Z,15.95
2017-04-17T11:34:41.985Z,15.88
2017-04-17T11:35:42.612Z,15.91
2017-04-17T11:36:43.218Z,15.84
2017-04-17T11:37:43.818Z,15.79
2017-04-17T11:38:44.422Z,15.79
2017-04-17T11:39:45.033Z,15.80
2017-04-17T11:40:45.636Z,15.79
2017-04-17T11:41:46.255Z,15.73
2017-04-17T11:42:46.873Z,15.64
2017-04-17T11:43:47.479Z,15.57
2017-04-17T11:44:48.103Z,15.59
2017-04-17T11:45:48.706Z,15.47
2017-04-17T11:46:49.317Z,15.52
2017-04-17T11:47:49.917Z,15.44
2017-04-17T11:48:50.538Z,15.49
2017-04-17T11:49:51.140Z,15.42
2017-04-17T11:50:51.743Z,15.52
2017-04-17T11:51:52.352Z,15.47
2017-04-17T11:52:52.977Z,15.42
2017-04-17T11:53:53.578Z,15.39
2017-04-17T11:54:54.187Z,15.37
2017-04-17T11:55:54.909Z,15.39
2017-04-17T11:56:55.517Z,15.43
2017-04-17T11:57:56.116Z,15.42
2017-04-17T11:58:56.721Z,15.54
2017-04-17T11:59:57.325Z,15.46
2017-04-17T12:00:57.937Z,15.49
2017-04-17T12:01:58.540Z,15.57
2017-04-17T12:02:59.161Z,15.61
2017-04-17T12:03:59.765Z,15.57
2017-04-17T12:05:00.367Z,15.54
2017-04-17T12:06:00.971Z,15.57
2017-04-17T12:07:01.574Z,15.68
2017-04-17T12:08:02.180Z,15.68
2017-04-17T12:09:02.783Z,15.65
2017-04-17T12:10:03.385Z,15.68
2017-04-17T12:11:03.989Z,15.67
2017-04-17T12:12:04.609Z,15.67
2017-04-17T12:13:05.217Z,15.75
2017-04-17T12:14:05.816Z,15.76
2017-04-17T12:15:06.431Z,15.73
2017-04-17T12:16:07.035Z,15.77
2017-04-17T12:17:07.636Z,15.65
2017-04-17T12:18:08.239Z,15.65
2017-04-17T12:19:08.841Z,15.57
2017-04-17T12:20:09.444Z,15.47
2017-04-17T12:21:10.067Z,15.36
2017-04-17T12:22:10.669Z,15.28
2017-04-17T12:23:11.284Z,15.17
2017-04-17T12:24:11.889Z,15.21
2017-04-17T12:25:12.490Z,15.07
2017-04-17T12:26:13.097Z,15.06
2017-04-17T12:27:13.699Z,15.07
2017-04-17T12:28:14.306Z,14.99
2017-04-17T12:29:14.912Z,14.94
2017-04-17T12:30:15.535Z,14.84
2017-04-17T12:31:16.136Z,14.79
2017-04-17T12:32:16.739Z,14.73
2017-04-17T12:33:17.341Z,14.72
2017-04-17T12:34:17.944Z,14.66
2017-04-17T12:35:18.550Z,14.63
2017-04-17T12:36:19.170Z,14.55
2017-04-17T12:37:19.778Z,14.53
2017-04-17T12:38:20.377Z,14.51
2017-04-17T12:39:20.984Z,14.55
2017-04-17T12:40:21.601Z,14.48
2017-04-17T12:41:22.211Z,14.50
2017-04-17T12:42:22.828Z,14.44
2017-04-17T12:43:23.437Z,14.47
2017-04-17T12:44:24.039Z,14.44
2017-04-17T12:45:24.655Z,14.53
2017-04-17T12:46:25.258Z,14.54
2017-04-17T12:47:25.860Z,14.47
2017-04-17T12:48:26.463Z,14.50
2017-04-17T12:49:27.066Z,14.55
2017-04-17T12:50:27.671Z,14.45
2017-04-17T12:51:28.295Z,14.43
2017-04-17T12:52:28.896Z,14.59
2017-04-17T12:53:29.501Z,14.55
2017-04-17T12:54:30.106Z,14.53
2017-04-17T12:55:30.712Z,14.48
2017-04-17T12:56:31.311Z,14.54
2017-04-17T12:57:31.920Z,14.63
2017-04-17T12:58:32.522Z,14.50
2017-04-17T12:59:33.124Z,14.60
2017-04-17T13:00:33.729Z,14.59
2017-04-17T13:01:34.332Z,14.62
2017-04-17T13:02:34.934Z,14.63
2017-04-17T13:03:35.540Z,14.66
2017-04-17T13:04:36.142Z,14.68